< < Back
Terminal Aerodrome Forecast


Current Version              Previous Versions:   1  2  3  4  5  6  7  8  9  

Terminal Aerodrome Forecast

613
FTUS42 KTAE 011741
TAFTLH
TAF
KTLH 011741Z 0118/0218 22008KT P6SM VCSH SCT025 BKN080
     FM012000 21005KT P6SM VCTS SCT040CB BKN250
     FM021000 00000KT 4SM BR SCT002
     FM021300 29005KT P6SM SCT250=

Latest METAR

788
SAUS80 KWBC 020200 RRC
MTRTLH
METAR KTLH 020153Z 15003KT 10SM CLR 27/23 A3001 RMK AO2 SLP162 T02670233
$


USA.gov is the U.S. government's official web portal to all federal, state and local government web resources and services.